sensor_id;sensor_type;location;lat;lon;timestamp;P1;durP1;ratioP1;P2;durP2;ratioP2
50880;SDS011;36858;47.832;-3.800;2023-10-31T08:43:36;10.43;;;1.90;;
50880;SDS011;36858;47.832;-3.800;2023-10-31T08:46:03;9.40;;;1.90;;
50880;SDS011;36858;47.832;-3.800;2023-10-31T08:48:30;7.73;;;2.23;;
50880;SDS011;36858;47.832;-3.800;2023-10-31T08:50:56;8.47;;;1.70;;
50880;SDS011;36858;47.832;-3.800;2023-10-31T08:53:23;7.83;;;1.70;;
50880;SDS011;36858;47.832;-3.800;2023-10-31T08:55:50;9.57;;;2.80;;
50880;SDS011;36858;47.832;-3.800;2023-10-31T08:58:17;9.53;;;2.20;;
50880;SDS011;36858;47.832;-3.800;2023-10-31T09:00:44;14.17;;;2.53;;
50880;SDS011;36858;47.832;-3.800;2023-10-31T09:03:11;7.30;;;1.80;;
50880;SDS011;36858;47.832;-3.800;2023-10-31T09:05:39;6.73;;;1.67;;
50880;SDS011;36858;47.832;-3.800;2023-10-31T09:08:06;9.00;;;2.07;;
50880;SDS011;36858;47.832;-3.800;2023-10-31T09:10:35;9.60;;;2.33;;
50880;SDS011;36858;47.832;-3.800;2023-10-31T09:13:04;9.20;;;1.90;;
50880;SDS011;36858;47.832;-3.800;2023-10-31T09:15:31;11.27;;;2.00;;
50880;SDS011;36858;47.832;-3.800;2023-10-31T09:17:58;14.50;;;2.83;;
50880;SDS011;36858;47.832;-3.800;2023-10-31T09:20:25;10.93;;;4.93;;
50880;SDS011;36858;47.832;-3.800;2023-10-31T09:22:52;14.67;;;5.07;;
50880;SDS011;36858;47.832;-3.800;2023-10-31T09:25:19;11.67;;;5.00;;
50880;SDS011;36858;47.832;-3.800;2023-10-31T09:27:46;13.80;;;4.27;;
50880;SDS011;36858;47.832;-3.800;2023-10-31T09:30:12;14.47;;;5.17;;
50880;SDS011;36858;47.832;-3.800;2023-10-31T09:32:39;11.80;;;3.30;;
50880;SDS011;36858;47.832;-3.800;2023-10-31T09:35:06;11.07;;;3.10;;
50880;SDS011;36858;47.832;-3.800;2023-10-31T09:37:34;14.70;;;3.90;;
50880;SDS011;36858;47.832;-3.800;2023-10-31T09:40:01;49.37;;;14.73;;
50880;SDS011;36858;47.832;-3.800;2023-10-31T09:42:28;129.70;;;34.37;;
50880;SDS011;36858;47.832;-3.800;2023-10-31T09:44:55;115.23;;;33.90;;
50880;SDS011;36858;47.832;-3.800;2023-10-31T09:47:22;185.87;;;53.07;;
50880;SDS011;36858;47.832;-3.800;2023-10-31T09:49:49;223.57;;;60.33;;
50880;SDS011;36858;47.832;-3.800;2023-10-31T09:52:17;324.07;;;83.37;;
50880;SDS011;36858;47.832;-3.800;2023-10-31T09:54:47;257.57;;;66.33;;
50880;SDS011;36858;47.832;-3.800;2023-10-31T09:57:14;222.70;;;57.90;;
50880;SDS011;36858;47.832;-3.800;2023-10-31T09:59:41;387.60;;;91.10;;
50880;SDS011;36858;47.832;-3.800;2023-10-31T10:02:09;386.13;;;93.87;;
50880;SDS011;36858;47.832;-3.800;2023-10-31T10:04:37;250.77;;;65.13;;
50880;SDS011;36858;47.832;-3.800;2023-10-31T10:07:04;225.43;;;56.93;;
50880;SDS011;36858;47.832;-3.800;2023-10-31T10:09:31;122.57;;;30.47;;
50880;SDS011;36858;47.832;-3.800;2023-10-31T10:11:59;148.33;;;36.07;;
50880;SDS011;36858;47.832;-3.800;2023-10-31T10:14:27;143.10;;;36.23;;
50880;SDS011;36858;47.832;-3.800;2023-10-31T10:17:00;94.40;;;29.07;;
50880;SDS011;36858;47.832;-3.800;2023-10-31T10:19:27;96.83;;;22.40;;
50880;SDS011;36858;47.832;-3.800;2023-10-31T10:21:56;54.33;;;15.73;;
50880;SDS011;36858;47.832;-3.800;2023-10-31T10:24:24;48.93;;;11.73;;
50880;SDS011;36858;47.832;-3.800;2023-10-31T10:26:51;37.57;;;10.03;;
50880;SDS011;36858;47.832;-3.800;2023-10-31T10:29:18;32.40;;;8.87;;
50880;SDS011;36858;47.832;-3.800;2023-10-31T10:31:45;30.40;;;7.33;;
50880;SDS011;36858;47.832;-3.800;2023-10-31T10:34:15;17.80;;;5.00;;
50880;SDS011;36858;47.832;-3.800;2023-10-31T10:36:49;20.87;;;5.23;;
50880;SDS011;36858;47.832;-3.800;2023-10-31T10:39:21;24.27;;;5.07;;
50880;SDS011;36858;47.832;-3.800;2023-10-31T10:41:53;18.13;;;4.00;;
50880;SDS011;36858;47.832;-3.800;2023-10-31T10:44:28;11.20;;;3.07;;
50880;SDS011;36858;47.832;-3.800;2023-10-31T10:47:01;18.27;;;3.47;;
50880;SDS011;36858;47.832;-3.800;2023-10-31T10:49:30;13.60;;;3.10;;
50880;SDS011;36858;47.832;-3.800;2023-10-31T10:52:01;20.43;;;3.70;;
50880;SDS011;36858;47.832;-3.800;2023-10-31T10:54:33;22.57;;;4.20;;
50880;SDS011;36858;47.832;-3.800;2023-10-31T10:59:41;18.70;;;3.00;;
50880;SDS011;36858;47.832;-3.800;2023-10-31T11:02:09;12.97;;;3.83;;
50880;SDS011;36858;47.832;-3.800;2023-10-31T11:04:40;19.13;;;2.90;;
50880;SDS011;36858;47.832;-3.800;2023-10-31T11:07:08;10.93;;;2.83;;
50880;SDS011;36858;47.832;-3.800;2023-10-31T11:09:36;12.37;;;2.77;;
50880;SDS011;36858;47.832;-3.800;2023-10-31T11:12:04;16.57;;;2.97;;
50880;SDS011;36858;47.832;-3.800;2023-10-31T11:14:33;12.73;;;2.97;;
50880;SDS011;36858;47.832;-3.800;2023-10-31T11:17:02;11.73;;;2.80;;
50880;SDS011;36858;47.832;-3.800;2023-10-31T11:19:36;17.80;;;3.60;;
50880;SDS011;36858;47.832;-3.800;2023-10-31T11:22:03;12.07;;;2.93;;
50880;SDS011;36858;47.832;-3.800;2023-10-31T11:24:32;12.63;;;5.43;;
50880;SDS011;36858;47.832;-3.800;2023-10-31T11:27:02;14.37;;;3.97;;
50880;SDS011;36858;47.832;-3.800;2023-10-31T11:29:31;19.70;;;4.67;;
50880;SDS011;36858;47.832;-3.800;2023-10-31T11:31:58;17.23;;;3.73;;
50880;SDS011;36858;47.832;-3.800;2023-10-31T11:34:26;21.47;;;4.37;;
50880;SDS011;36858;47.832;-3.800;2023-10-31T11:37:17;16.43;;;3.97;;
50880;SDS011;36858;47.832;-3.800;2023-10-31T11:42:43;14.17;;;3.10;;
50880;SDS011;36858;47.832;-3.800;2023-10-31T11:45:11;24.40;;;4.70;;
50880;SDS011;36858;47.832;-3.800;2023-10-31T11:48:12;15.67;;;3.00;;
50880;SDS011;36858;47.832;-3.800;2023-10-31T11:50:32;20.87;;;3.70;;
50880;SDS011;36858;47.832;-3.800;2023-10-31T11:53:00;8.60;;;2.23;;
50880;SDS011;36858;47.832;-3.800;2023-10-31T11:55:34;16.10;;;3.37;;
50880;SDS011;36858;47.832;-3.800;2023-10-31T12:00:49;16.30;;;2.60;;
50880;SDS011;36858;47.832;-3.800;2023-10-31T12:03:18;13.23;;;2.43;;
50880;SDS011;36858;47.832;-3.800;2023-10-31T12:05:56;11.53;;;2.30;;
50880;SDS011;36858;47.832;-3.800;2023-10-31T12:08:29;11.40;;;2.47;;
50880;SDS011;36858;47.832;-3.800;2023-10-31T12:13:33;8.87;;;2.30;;
50880;SDS011;36858;47.832;-3.800;2023-10-31T12:16:01;14.17;;;2.47;;
50880;SDS011;36858;47.832;-3.800;2023-10-31T12:18:29;8.47;;;2.37;;
50880;SDS011;36858;47.832;-3.800;2023-10-31T12:20:56;6.23;;;1.63;;
50880;SDS011;36858;47.832;-3.800;2023-10-31T12:23:22;9.73;;;2.40;;
50880;SDS011;36858;47.832;-3.800;2023-10-31T12:25:52;16.23;;;2.63;;
50880;SDS011;36858;47.832;-3.800;2023-10-31T12:28:20;11.80;;;2.13;;
50880;SDS011;36858;47.832;-3.800;2023-10-31T12:30:49;8.50;;;2.23;;
50880;SDS011;36858;47.832;-3.800;2023-10-31T12:33:17;13.53;;;2.47;;
50880;SDS011;36858;47.832;-3.800;2023-10-31T12:35:44;9.47;;;2.27;;
50880;SDS011;36858;47.832;-3.800;2023-10-31T12:38:12;11.67;;;2.93;;
50880;SDS011;36858;47.832;-3.800;2023-10-31T12:40:40;14.47;;;2.50;;
50880;SDS011;36858;47.832;-3.800;2023-10-31T12:43:08;21.47;;;3.03;;
50880;SDS011;36858;47.832;-3.800;2023-10-31T12:45:35;20.27;;;4.03;;
50880;SDS011;36858;47.832;-3.800;2023-10-31T12:48:06;12.50;;;3.43;;
50880;SDS011;36858;47.832;-3.800;2023-10-31T12:50:35;19.17;;;6.70;;
50880;SDS011;36858;47.832;-3.800;2023-10-31T12:53:09;17.87;;;8.40;;
50880;SDS011;36858;47.832;-3.800;2023-10-31T12:55:40;25.13;;;11.07;;
50880;SDS011;36858;47.832;-3.800;2023-10-31T12:58:08;31.13;;;13.93;;
50880;SDS011;36858;47.832;-3.800;2023-10-31T13:00:37;24.13;;;13.90;;
50880;SDS011;36858;47.832;-3.800;2023-10-31T13:03:07;36.00;;;14.83;;
50880;SDS011;36858;47.832;-3.800;2023-10-31T13:05:35;20.40;;;10.63;;
50880;SDS011;36858;47.832;-3.800;2023-10-31T13:08:02;17.73;;;7.13;;
50880;SDS011;36858;47.832;-3.800;2023-10-31T13:10:32;16.33;;;4.83;;
50880;SDS011;36858;47.832;-3.800;2023-10-31T13:12:59;12.53;;;4.20;;
50880;SDS011;36858;47.832;-3.800;2023-10-31T13:15:26;17.93;;;5.10;;
50880;SDS011;36858;47.832;-3.800;2023-10-31T13:17:53;24.00;;;9.90;;
50880;SDS011;36858;47.832;-3.800;2023-10-31T13:20:21;34.37;;;14.23;;
50880;SDS011;36858;47.832;-3.800;2023-10-31T13:22:48;29.00;;;12.70;;
50880;SDS011;36858;47.832;-3.800;2023-10-31T13:25:16;25.13;;;8.60;;
50880;SDS011;36858;47.832;-3.800;2023-10-31T13:27:43;17.30;;;6.70;;
50880;SDS011;36858;47.832;-3.800;2023-10-31T13:30:11;14.27;;;6.00;;
50880;SDS011;36858;47.832;-3.800;2023-10-31T13:32:40;20.87;;;8.17;;
50880;SDS011;36858;47.832;-3.800;2023-10-31T13:35:07;15.23;;;6.33;;
50880;SDS011;36858;47.832;-3.800;2023-10-31T13:37:37;12.30;;;5.07;;
50880;SDS011;36858;47.832;-3.800;2023-10-31T13:40:04;12.67;;;5.23;;
50880;SDS011;36858;47.832;-3.800;2023-10-31T13:42:31;9.33;;;4.87;;
50880;SDS011;36858;47.832;-3.800;2023-10-31T13:44:58;13.47;;;5.07;;
50880;SDS011;36858;47.832;-3.800;2023-10-31T13:47:25;16.90;;;7.07;;
50880;SDS011;36858;47.832;-3.800;2023-10-31T13:49:53;19.93;;;7.50;;
50880;SDS011;36858;47.832;-3.800;2023-10-31T13:52:20;16.80;;;5.23;;
50880;SDS011;36858;47.832;-3.800;2023-10-31T13:54:47;16.97;;;4.63;;
50880;SDS011;36858;47.832;-3.800;2023-10-31T13:57:14;15.03;;;4.13;;
50880;SDS011;36858;47.832;-3.800;2023-10-31T13:59:41;24.17;;;3.63;;
50880;SDS011;36858;47.832;-3.800;2023-10-31T14:02:08;19.20;;;3.80;;
50880;SDS011;36858;47.832;-3.800;2023-10-31T14:04:35;25.17;;;4.37;;
50880;SDS011;36858;47.832;-3.800;2023-10-31T14:07:02;17.00;;;3.37;;
50880;SDS011;36858;47.832;-3.800;2023-10-31T14:09:29;12.13;;;3.40;;
50880;SDS011;36858;47.832;-3.800;2023-10-31T14:11:57;15.47;;;3.63;;
50880;SDS011;36858;47.832;-3.800;2023-10-31T14:14:24;15.63;;;3.67;;
50880;SDS011;36858;47.832;-3.800;2023-10-31T14:16:51;13.30;;;3.73;;
50880;SDS011;36858;47.832;-3.800;2023-10-31T14:19:18;20.07;;;3.43;;
50880;SDS011;36858;47.832;-3.800;2023-10-31T14:21:45;16.73;;;3.03;;
50880;SDS011;36858;47.832;-3.800;2023-10-31T14:24:12;17.63;;;3.40;;
50880;SDS011;36858;47.832;-3.800;2023-10-31T14:26:39;18.03;;;3.13;;
50880;SDS011;36858;47.832;-3.800;2023-10-31T14:29:10;19.60;;;3.47;;
50880;SDS011;36858;47.832;-3.800;2023-10-31T14:31:38;12.97;;;3.53;;
50880;SDS011;36858;47.832;-3.800;2023-10-31T14:34:06;21.43;;;3.23;;
50880;SDS011;36858;47.832;-3.800;2023-10-31T14:36:33;18.20;;;4.30;;
50880;SDS011;36858;47.832;-3.800;2023-10-31T14:39:00;16.77;;;3.07;;
50880;SDS011;36858;47.832;-3.800;2023-10-31T14:41:27;14.80;;;3.97;;
50880;SDS011;36858;47.832;-3.800;2023-10-31T14:43:54;18.13;;;3.70;;
50880;SDS011;36858;47.832;-3.800;2023-10-31T14:46:21;27.87;;;5.60;;
50880;SDS011;36858;47.832;-3.800;2023-10-31T14:48:48;24.20;;;5.50;;
50880;SDS011;36858;47.832;-3.800;2023-10-31T14:51:16;20.33;;;3.30;;
50880;SDS011;36858;47.832;-3.800;2023-10-31T14:53:43;22.83;;;4.33;;
50880;SDS011;36858;47.832;-3.800;2023-10-31T14:56:14;16.63;;;4.17;;
50880;SDS011;36858;47.832;-3.800;2023-10-31T14:58:42;26.00;;;4.13;;
50880;SDS011;36858;47.832;-3.800;2023-10-31T15:01:09;22.23;;;3.53;;
50880;SDS011;36858;47.832;-3.800;2023-10-31T15:03:35;18.90;;;4.17;;
50880;SDS011;36858;47.832;-3.800;2023-10-31T15:06:03;16.83;;;3.70;;
50880;SDS011;36858;47.832;-3.800;2023-10-31T15:08:34;13.50;;;3.07;;
50880;SDS011;36858;47.832;-3.800;2023-10-31T15:11:01;17.60;;;3.50;;
50880;SDS011;36858;47.832;-3.800;2023-10-31T15:13:28;22.23;;;4.33;;
50880;SDS011;36858;47.832;-3.800;2023-10-31T15:15:55;18.70;;;3.70;;
50880;SDS011;36858;47.832;-3.800;2023-10-31T15:18:22;12.27;;;2.83;;
50880;SDS011;36858;47.832;-3.800;2023-10-31T15:20:49;23.30;;;4.70;;
50880;SDS011;36858;47.832;-3.800;2023-10-31T15:23:16;17.33;;;3.97;;
50880;SDS011;36858;47.832;-3.800;2023-10-31T15:25:43;15.27;;;4.27;;
50880;SDS011;36858;47.832;-3.800;2023-10-31T15:28:10;25.00;;;4.30;;
50880;SDS011;36858;47.832;-3.800;2023-10-31T15:30:37;15.43;;;3.67;;
50880;SDS011;36858;47.832;-3.800;2023-10-31T15:33:04;18.80;;;3.63;;
50880;SDS011;36858;47.832;-3.800;2023-10-31T15:35:31;19.17;;;4.80;;
50880;SDS011;36858;47.832;-3.800;2023-10-31T15:37:58;18.20;;;4.50;;
50880;SDS011;36858;47.832;-3.800;2023-10-31T15:40:25;13.23;;;3.67;;
50880;SDS011;36858;47.832;-3.800;2023-10-31T15:42:52;19.77;;;5.87;;
50880;SDS011;36858;47.832;-3.800;2023-10-31T15:45:19;22.67;;;5.80;;
50880;SDS011;36858;47.832;-3.800;2023-10-31T15:47:46;17.53;;;4.90;;
50880;SDS011;36858;47.832;-3.800;2023-10-31T15:50:13;15.97;;;4.00;;
50880;SDS011;36858;47.832;-3.800;2023-10-31T15:52:40;16.13;;;3.67;;
50880;SDS011;36858;47.832;-3.800;2023-10-31T15:55:08;17.87;;;3.80;;
50880;SDS011;36858;47.832;-3.800;2023-10-31T15:57:35;18.63;;;3.37;;
50880;SDS011;36858;47.832;-3.800;2023-10-31T16:00:02;14.03;;;3.07;;
50880;SDS011;36858;47.832;-3.800;2023-10-31T16:02:30;16.27;;;3.50;;
50880;SDS011;36858;47.832;-3.800;2023-10-31T16:04:57;13.47;;;3.13;;
50880;SDS011;36858;47.832;-3.800;2023-10-31T16:07:25;15.47;;;3.70;;
50880;SDS011;36858;47.832;-3.800;2023-10-31T16:09:52;13.73;;;3.03;;
50880;SDS011;36858;47.832;-3.800;2023-10-31T16:12:19;15.57;;;3.30;;
50880;SDS011;36858;47.832;-3.800;2023-10-31T16:14:46;16.57;;;3.67;;
50880;SDS011;36858;47.832;-3.800;2023-10-31T16:17:12;20.67;;;4.10;;
50880;SDS011;36858;47.832;-3.800;2023-10-31T16:19:39;13.73;;;3.00;;
50880;SDS011;36858;47.832;-3.800;2023-10-31T16:22:06;20.43;;;3.93;;
50880;SDS011;36858;47.832;-3.800;2023-10-31T16:24:34;15.97;;;3.50;;
50880;SDS011;36858;47.832;-3.800;2023-10-31T16:27:01;16.83;;;3.27;;
50880;SDS011;36858;47.832;-3.800;2023-10-31T16:29:28;9.73;;;2.90;;
50880;SDS011;36858;47.832;-3.800;2023-10-31T16:31:55;11.87;;;3.03;;
50880;SDS011;36858;47.832;-3.800;2023-10-31T16:34:22;12.03;;;3.03;;
50880;SDS011;36858;47.832;-3.800;2023-10-31T16:36:49;17.43;;;4.67;;
50880;SDS011;36858;47.832;-3.800;2023-10-31T16:39:16;11.47;;;3.30;;
50880;SDS011;36858;47.832;-3.800;2023-10-31T16:41:43;13.13;;;3.00;;
50880;SDS011;36858;47.832;-3.800;2023-10-31T16:44:10;10.83;;;2.90;;
50880;SDS011;36858;47.832;-3.800;2023-10-31T16:46:44;16.33;;;3.57;;
50880;SDS011;36858;47.832;-3.800;2023-10-31T16:49:15;12.53;;;2.93;;
50880;SDS011;36858;47.832;-3.800;2023-10-31T16:51:43;9.60;;;2.73;;
50880;SDS011;36858;47.832;-3.800;2023-10-31T16:54:13;14.80;;;3.27;;
50880;SDS011;36858;47.832;-3.800;2023-10-31T17:00:05;9.77;;;3.60;;
50880;SDS011;36858;47.832;-3.800;2023-10-31T17:02:34;13.27;;;2.50;;
50880;SDS011;36858;47.832;-3.800;2023-10-31T17:05:01;11.73;;;2.57;;
50880;SDS011;36858;47.832;-3.800;2023-10-31T17:07:32;11.27;;;2.53;;
50880;SDS011;36858;47.832;-3.800;2023-10-31T17:13:28;18.83;;;3.87;;
50880;SDS011;36858;47.832;-3.800;2023-10-31T17:16:23;13.97;;;4.30;;
50880;SDS011;36858;47.832;-3.800;2023-10-31T17:19:13;21.73;;;4.13;;
50880;SDS011;36858;47.832;-3.800;2023-10-31T17:21:46;20.03;;;4.37;;
50880;SDS011;36858;47.832;-3.800;2023-10-31T17:24:26;21.33;;;3.73;;
50880;SDS011;36858;47.832;-3.800;2023-10-31T17:27:00;19.50;;;4.83;;
50880;SDS011;36858;47.832;-3.800;2023-10-31T17:29:34;11.87;;;3.43;;
50880;SDS011;36858;47.832;-3.800;2023-10-31T17:32:02;11.20;;;3.30;;
50880;SDS011;36858;47.832;-3.800;2023-10-31T17:34:49;13.90;;;3.47;;
50880;SDS011;36858;47.832;-3.800;2023-10-31T17:37:20;9.37;;;2.80;;
50880;SDS011;36858;47.832;-3.800;2023-10-31T17:39:50;9.33;;;3.13;;
50880;SDS011;36858;47.832;-3.800;2023-10-31T17:42:31;12.67;;;3.30;;
50880;SDS011;36858;47.832;-3.800;2023-10-31T17:45:07;14.10;;;3.17;;
50880;SDS011;36858;47.832;-3.800;2023-10-31T17:47:38;12.87;;;3.33;;
50880;SDS011;36858;47.832;-3.800;2023-10-31T17:50:07;15.67;;;3.50;;
50880;SDS011;36858;47.832;-3.800;2023-10-31T17:52:34;9.47;;;2.80;;
50880;SDS011;36858;47.832;-3.800;2023-10-31T17:55:02;11.73;;;2.70;;
50880;SDS011;36858;47.832;-3.800;2023-10-31T17:57:29;11.07;;;3.33;;
50880;SDS011;36858;47.832;-3.800;2023-10-31T17:59:56;10.90;;;3.07;;
50880;SDS011;36858;47.832;-3.800;2023-10-31T18:02:23;11.93;;;2.77;;
50880;SDS011;36858;47.832;-3.800;2023-10-31T18:04:50;10.70;;;2.73;;
50880;SDS011;36858;47.832;-3.800;2023-10-31T18:07:17;7.80;;;2.83;;
50880;SDS011;36858;47.832;-3.800;2023-10-31T18:09:46;10.73;;;3.37;;
50880;SDS011;36858;47.832;-3.800;2023-10-31T18:12:15;14.13;;;3.43;;
50880;SDS011;36858;47.832;-3.800;2023-10-31T18:14:43;12.63;;;3.07;;
50880;SDS011;36858;47.832;-3.800;2023-10-31T18:17:10;15.43;;;3.60;;
50880;SDS011;36858;47.832;-3.800;2023-10-31T18:19:37;10.80;;;2.43;;
50880;SDS011;36858;47.832;-3.800;2023-10-31T18:22:04;14.23;;;3.10;;
50880;SDS011;36858;47.832;-3.800;2023-10-31T18:24:32;13.20;;;3.73;;
50880;SDS011;36858;47.832;-3.800;2023-10-31T18:26:59;12.33;;;2.80;;
50880;SDS011;36858;47.832;-3.800;2023-10-31T18:29:26;15.00;;;3.47;;
50880;SDS011;36858;47.832;-3.800;2023-10-31T18:31:53;12.77;;;3.43;;
50880;SDS011;36858;47.832;-3.800;2023-10-31T18:34:22;13.00;;;2.53;;
50880;SDS011;36858;47.832;-3.800;2023-10-31T18:36:49;9.40;;;2.73;;
50880;SDS011;36858;47.832;-3.800;2023-10-31T18:39:16;12.60;;;3.20;;
50880;SDS011;36858;47.832;-3.800;2023-10-31T18:41:43;11.10;;;2.80;;
50880;SDS011;36858;47.832;-3.800;2023-10-31T18:44:28;17.83;;;3.17;;
50880;SDS011;36858;47.832;-3.800;2023-10-31T18:47:11;9.80;;;3.07;;
50880;SDS011;36858;47.832;-3.800;2023-10-31T18:49:38;10.10;;;2.27;;
50880;SDS011;36858;47.832;-3.800;2023-10-31T18:52:05;18.53;;;2.97;;
50880;SDS011;36858;47.832;-3.800;2023-10-31T18:54:32;13.23;;;2.83;;
50880;SDS011;36858;47.832;-3.800;2023-10-31T18:56:59;7.53;;;2.30;;
50880;SDS011;36858;47.832;-3.800;2023-10-31T18:59:26;13.53;;;2.80;;
50880;SDS011;36858;47.832;-3.800;2023-10-31T19:01:53;6.77;;;2.17;;
50880;SDS011;36858;47.832;-3.800;2023-10-31T19:04:25;10.40;;;2.47;;
50880;SDS011;36858;47.832;-3.800;2023-10-31T19:06:52;11.40;;;2.60;;
50880;SDS011;36858;47.832;-3.800;2023-10-31T19:09:20;8.37;;;2.20;;
50880;SDS011;36858;47.832;-3.800;2023-10-31T19:11:47;8.03;;;2.70;;
50880;SDS011;36858;47.832;-3.800;2023-10-31T19:14:14;10.57;;;2.20;;
50880;SDS011;36858;47.832;-3.800;2023-10-31T19:16:42;10.50;;;2.27;;
50880;SDS011;36858;47.832;-3.800;2023-10-31T19:19:10;7.57;;;2.10;;
50880;SDS011;36858;47.832;-3.800;2023-10-31T19:21:37;10.77;;;2.40;;
50880;SDS011;36858;47.832;-3.800;2023-10-31T19:24:04;10.13;;;2.13;;
50880;SDS011;36858;47.832;-3.800;2023-10-31T19:26:31;11.83;;;2.57;;
50880;SDS011;36858;47.832;-3.800;2023-10-31T19:28:59;11.03;;;2.07;;
50880;SDS011;36858;47.832;-3.800;2023-10-31T19:31:26;7.07;;;2.03;;
50880;SDS011;36858;47.832;-3.800;2023-10-31T19:33:53;9.30;;;2.40;;
50880;SDS011;36858;47.832;-3.800;2023-10-31T19:36:22;8.47;;;2.40;;
50880;SDS011;36858;47.832;-3.800;2023-10-31T19:38:50;7.67;;;2.23;;
50880;SDS011;36858;47.832;-3.800;2023-10-31T19:41:17;11.93;;;2.60;;
50880;SDS011;36858;47.832;-3.800;2023-10-31T19:43:44;11.33;;;2.20;;
50880;SDS011;36858;47.832;-3.800;2023-10-31T19:46:11;13.07;;;2.70;;
50880;SDS011;36858;47.832;-3.800;2023-10-31T19:48:38;6.27;;;1.80;;
50880;SDS011;36858;47.832;-3.800;2023-10-31T19:51:06;15.77;;;2.90;;
50880;SDS011;36858;47.832;-3.800;2023-10-31T19:53:36;9.97;;;1.70;;
50880;SDS011;36858;47.832;-3.800;2023-10-31T19:56:03;9.20;;;2.10;;
50880;SDS011;36858;47.832;-3.800;2023-10-31T19:58:31;10.33;;;2.37;;
50880;SDS011;36858;47.832;-3.800;2023-10-31T20:00:58;9.33;;;2.60;;
50880;SDS011;36858;47.832;-3.800;2023-10-31T20:03:25;7.97;;;2.43;;
50880;SDS011;36858;47.832;-3.800;2023-10-31T20:05:52;10.03;;;2.27;;
50880;SDS011;36858;47.832;-3.800;2023-10-31T20:08:19;14.60;;;2.40;;
50880;SDS011;36858;47.832;-3.800;2023-10-31T20:10:46;10.57;;;2.00;;
50880;SDS011;36858;47.832;-3.800;2023-10-31T20:13:13;12.40;;;2.60;;
50880;SDS011;36858;47.832;-3.800;2023-10-31T20:15:41;10.50;;;2.30;;
50880;SDS011;36858;47.832;-3.800;2023-10-31T20:18:08;12.30;;;2.20;;
50880;SDS011;36858;47.832;-3.800;2023-10-31T20:20:36;9.43;;;2.37;;
50880;SDS011;36858;47.832;-3.800;2023-10-31T20:23:03;7.60;;;2.40;;
50880;SDS011;36858;47.832;-3.800;2023-10-31T20:25:29;8.03;;;2.70;;
50880;SDS011;36858;47.832;-3.800;2023-10-31T20:27:57;10.70;;;2.90;;
50880;SDS011;36858;47.832;-3.800;2023-10-31T20:30:24;8.63;;;2.33;;
50880;SDS011;36858;47.832;-3.800;2023-10-31T20:32:51;11.43;;;2.10;;
50880;SDS011;36858;47.832;-3.800;2023-10-31T20:35:18;9.03;;;2.80;;
50880;SDS011;36858;47.832;-3.800;2023-10-31T20:37:45;8.60;;;2.10;;
50880;SDS011;36858;47.832;-3.800;2023-10-31T20:40:12;10.97;;;2.50;;
50880;SDS011;36858;47.832;-3.800;2023-10-31T20:42:40;9.90;;;2.93;;
50880;SDS011;36858;47.832;-3.800;2023-10-31T20:45:07;10.57;;;2.50;;
50880;SDS011;36858;47.832;-3.800;2023-10-31T20:47:34;10.30;;;2.43;;
50880;SDS011;36858;47.832;-3.800;2023-10-31T20:50:03;9.17;;;2.00;;
50880;SDS011;36858;47.832;-3.800;2023-10-31T20:52:32;9.50;;;2.63;;
50880;SDS011;36858;47.832;-3.800;2023-10-31T20:55:00;10.80;;;3.13;;
50880;SDS011;36858;47.832;-3.800;2023-10-31T20:57:27;7.80;;;2.70;;
50880;SDS011;36858;47.832;-3.800;2023-10-31T20:59:54;7.23;;;2.27;;
50880;SDS011;36858;47.832;-3.800;2023-10-31T21:02:21;11.03;;;1.80;;
50880;SDS011;36858;47.832;-3.800;2023-10-31T21:04:49;6.50;;;1.87;;
50880;SDS011;36858;47.832;-3.800;2023-10-31T21:07:17;6.50;;;2.40;;
50880;SDS011;36858;47.832;-3.800;2023-10-31T21:09:45;11.07;;;2.93;;
50880;SDS011;36858;47.832;-3.800;2023-10-31T21:12:12;6.83;;;2.30;;
50880;SDS011;36858;47.832;-3.800;2023-10-31T21:14:39;9.13;;;2.43;;
50880;SDS011;36858;47.832;-3.800;2023-10-31T21:17:06;4.43;;;1.67;;
50880;SDS011;36858;47.832;-3.800;2023-10-31T21:19:33;8.77;;;2.23;;
50880;SDS011;36858;47.832;-3.800;2023-10-31T21:22:05;7.10;;;1.70;;
50880;SDS011;36858;47.832;-3.800;2023-10-31T21:24:36;10.77;;;1.80;;
50880;SDS011;36858;47.832;-3.800;2023-10-31T21:27:03;8.03;;;1.97;;
50880;SDS011;36858;47.832;-3.800;2023-10-31T21:29:30;9.77;;;2.30;;
50880;SDS011;36858;47.832;-3.800;2023-10-31T21:31:57;9.10;;;2.10;;
50880;SDS011;36858;47.832;-3.800;2023-10-31T21:34:24;4.67;;;1.80;;
50880;SDS011;36858;47.832;-3.800;2023-10-31T21:36:51;6.50;;;2.33;;
50880;SDS011;36858;47.832;-3.800;2023-10-31T21:39:18;8.23;;;1.87;;
50880;SDS011;36858;47.832;-3.800;2023-10-31T21:41:46;10.17;;;2.73;;
50880;SDS011;36858;47.832;-3.800;2023-10-31T21:44:15;11.07;;;2.23;;
50880;SDS011;36858;47.832;-3.800;2023-10-31T21:46:42;11.70;;;2.67;;
50880;SDS011;36858;47.832;-3.800;2023-10-31T21:49:11;11.40;;;2.37;;
50880;SDS011;36858;47.832;-3.800;2023-10-31T21:51:38;11.43;;;2.83;;
50880;SDS011;36858;47.832;-3.800;2023-10-31T21:54:05;8.37;;;1.80;;
50880;SDS011;36858;47.832;-3.800;2023-10-31T21:56:32;11.93;;;1.97;;
50880;SDS011;36858;47.832;-3.800;2023-10-31T21:58:59;9.50;;;2.30;;
50880;SDS011;36858;47.832;-3.800;2023-10-31T22:01:26;8.63;;;2.27;;
50880;SDS011;36858;47.832;-3.800;2023-10-31T22:03:53;10.00;;;2.63;;
50880;SDS011;36858;47.832;-3.800;2023-10-31T22:06:20;12.30;;;2.80;;
50880;SDS011;36858;47.832;-3.800;2023-10-31T22:08:47;11.80;;;2.17;;
50880;SDS011;36858;47.832;-3.800;2023-10-31T22:11:13;8.33;;;2.00;;
50880;SDS011;36858;47.832;-3.800;2023-10-31T22:13:40;7.83;;;1.70;;
50880;SDS011;36858;47.832;-3.800;2023-10-31T22:16:07;9.03;;;2.30;;
50880;SDS011;36858;47.832;-3.800;2023-10-31T22:18:34;9.57;;;2.00;;
50880;SDS011;36858;47.832;-3.800;2023-10-31T22:21:01;7.93;;;2.30;;
50880;SDS011;36858;47.832;-3.800;2023-10-31T22:23:29;10.43;;;2.53;;
50880;SDS011;36858;47.832;-3.800;2023-10-31T22:25:57;9.20;;;2.20;;
50880;SDS011;36858;47.832;-3.800;2023-10-31T22:28:23;7.53;;;1.53;;
50880;SDS011;36858;47.832;-3.800;2023-10-31T22:30:50;12.30;;;2.70;;
50880;SDS011;36858;47.832;-3.800;2023-10-31T22:33:17;9.67;;;2.03;;
50880;SDS011;36858;47.832;-3.800;2023-10-31T22:35:44;8.97;;;2.03;;
50880;SDS011;36858;47.832;-3.800;2023-10-31T22:38:11;10.17;;;1.93;;
50880;SDS011;36858;47.832;-3.800;2023-10-31T22:40:38;12.13;;;2.20;;
50880;SDS011;36858;47.832;-3.800;2023-10-31T22:43:05;11.10;;;2.70;;
50880;SDS011;36858;47.832;-3.800;2023-10-31T22:45:33;6.63;;;2.07;;
50880;SDS011;36858;47.832;-3.800;2023-10-31T22:48:00;7.67;;;1.97;;
50880;SDS011;36858;47.832;-3.800;2023-10-31T22:50:27;9.60;;;2.30;;
50880;SDS011;36858;47.832;-3.800;2023-10-31T22:52:53;6.33;;;2.10;;
50880;SDS011;36858;47.832;-3.800;2023-10-31T22:55:20;13.43;;;2.60;;
50880;SDS011;36858;47.832;-3.800;2023-10-31T22:57:47;9.20;;;2.37;;
50880;SDS011;36858;47.832;-3.800;2023-10-31T23:00:14;9.33;;;1.93;;
50880;SDS011;36858;47.832;-3.800;2023-10-31T23:02:48;10.37;;;3.10;;
50880;SDS011;36858;47.832;-3.800;2023-10-31T23:05:15;8.93;;;2.03;;
50880;SDS011;36858;47.832;-3.800;2023-10-31T23:07:42;6.43;;;1.43;;
50880;SDS011;36858;47.832;-3.800;2023-10-31T23:10:09;5.30;;;2.10;;
50880;SDS011;36858;47.832;-3.800;2023-10-31T23:12:36;4.23;;;1.60;;
50880;SDS011;36858;47.832;-3.800;2023-10-31T23:15:04;4.27;;;1.77;;
50880;SDS011;36858;47.832;-3.800;2023-10-31T23:17:38;8.17;;;1.70;;
50880;SDS011;36858;47.832;-3.800;2023-10-31T23:20:06;8.07;;;1.93;;
50880;SDS011;36858;47.832;-3.800;2023-10-31T23:22:34;6.73;;;1.63;;
50880;SDS011;36858;47.832;-3.800;2023-10-31T23:25:02;5.73;;;1.60;;
50880;SDS011;36858;47.832;-3.800;2023-10-31T23:27:31;7.93;;;1.83;;
50880;SDS011;36858;47.832;-3.800;2023-10-31T23:29:57;9.13;;;2.03;;